sensor_id;sensor_type;location;lat;lon;timestamp;temperature;humidity
22173;DHT22;11252;50.596;17.648;2023-08-06T00:01:47;16.40;92.20
22173;DHT22;11252;50.596;17.648;2023-08-06T00:04:14;16.40;92.20
22173;DHT22;11252;50.596;17.648;2023-08-06T00:06:41;16.40;92.20
22173;DHT22;11252;50.596;17.648;2023-08-06T00:09:08;16.40;92.20
22173;DHT22;11252;50.596;17.648;2023-08-06T00:11:35;16.40;92.20
22173;DHT22;11252;50.596;17.648;2023-08-06T00:14:02;16.40;92.20
22173;DHT22;11252;50.596;17.648;2023-08-06T00:16:29;16.40;92.20
22173;DHT22;11252;50.596;17.648;2023-08-06T00:18:56;16.40;92.20
22173;DHT22;11252;50.596;17.648;2023-08-06T00:21:23;16.40;92.20
22173;DHT22;11252;50.596;17.648;2023-08-06T00:23:50;16.40;92.20
22173;DHT22;11252;50.596;17.648;2023-08-06T00:26:19;16.40;92.20
22173;DHT22;11252;50.596;17.648;2023-08-06T00:28:46;16.30;92.20
22173;DHT22;11252;50.596;17.648;2023-08-06T00:31:13;16.40;92.20
22173;DHT22;11252;50.596;17.648;2023-08-06T00:33:40;16.40;92.20
22173;DHT22;11252;50.596;17.648;2023-08-06T00:36:07;16.40;92.20
22173;DHT22;11252;50.596;17.648;2023-08-06T00:38:34;16.30;92.20
22173;DHT22;11252;50.596;17.648;2023-08-06T00:41:02;16.30;92.20
22173;DHT22;11252;50.596;17.648;2023-08-06T00:43:31;16.40;92.20
22173;DHT22;11252;50.596;17.648;2023-08-06T00:45:58;16.40;92.20
22173;DHT22;11252;50.596;17.648;2023-08-06T00:48:25;16.40;92.20
22173;DHT22;11252;50.596;17.648;2023-08-06T00:50:51;16.30;92.20
22173;DHT22;11252;50.596;17.648;2023-08-06T00:53:19;16.30;92.20
22173;DHT22;11252;50.596;17.648;2023-08-06T00:55:46;16.30;92.20
22173;DHT22;11252;50.596;17.648;2023-08-06T00:58:14;16.30;92.20
22173;DHT22;11252;50.596;17.648;2023-08-06T01:00:43;16.30;92.20
22173;DHT22;11252;50.596;17.648;2023-08-06T01:03:10;16.30;92.20
22173;DHT22;11252;50.596;17.648;2023-08-06T01:05:37;16.30;92.20
22173;DHT22;11252;50.596;17.648;2023-08-06T01:08:19;16.30;92.20
22173;DHT22;11252;50.596;17.648;2023-08-06T01:13:46;16.30;92.20
22173;DHT22;11252;50.596;17.648;2023-08-06T01:16:21;16.20;92.20
22173;DHT22;11252;50.596;17.648;2023-08-06T01:18:48;16.30;92.20
22173;DHT22;11252;50.596;17.648;2023-08-06T01:21:17;16.30;92.20
22173;DHT22;11252;50.596;17.648;2023-08-06T01:23:45;16.20;92.20
22173;DHT22;11252;50.596;17.648;2023-08-06T01:26:30;16.20;92.20
22173;DHT22;11252;50.596;17.648;2023-08-06T01:31:37;16.20;92.20
22173;DHT22;11252;50.596;17.648;2023-08-06T01:34:09;16.20;92.20
22173;DHT22;11252;50.596;17.648;2023-08-06T01:36:38;16.20;92.20
22173;DHT22;11252;50.596;17.648;2023-08-06T01:39:05;16.20;92.20
22173;DHT22;11252;50.596;17.648;2023-08-06T01:41:32;16.20;92.20
22173;DHT22;11252;50.596;17.648;2023-08-06T01:44:00;16.20;92.20
22173;DHT22;11252;50.596;17.648;2023-08-06T01:46:26;16.20;92.20
22173;DHT22;11252;50.596;17.648;2023-08-06T01:48:53;16.20;92.20
22173;DHT22;11252;50.596;17.648;2023-08-06T01:51:20;16.10;92.20
22173;DHT22;11252;50.596;17.648;2023-08-06T01:53:47;16.10;92.20
22173;DHT22;11252;50.596;17.648;2023-08-06T01:56:14;16.10;92.20
22173;DHT22;11252;50.596;17.648;2023-08-06T01:58:41;16.10;92.20
22173;DHT22;11252;50.596;17.648;2023-08-06T02:01:08;16.10;92.20
22173;DHT22;11252;50.596;17.648;2023-08-06T02:03:35;16.10;92.20
22173;DHT22;11252;50.596;17.648;2023-08-06T02:06:02;16.10;92.20
22173;DHT22;11252;50.596;17.648;2023-08-06T02:08:29;16.10;92.20
22173;DHT22;11252;50.596;17.648;2023-08-06T02:10:56;16.10;92.20
22173;DHT22;11252;50.596;17.648;2023-08-06T02:13:24;16.10;92.20
22173;DHT22;11252;50.596;17.648;2023-08-06T02:15:51;16.10;92.20
22173;DHT22;11252;50.596;17.648;2023-08-06T02:18:18;16.10;92.20
22173;DHT22;11252;50.596;17.648;2023-08-06T02:20:55;16.10;92.20
22173;DHT22;11252;50.596;17.648;2023-08-06T02:23:23;16.10;92.20
22173;DHT22;11252;50.596;17.648;2023-08-06T02:26:02;16.00;92.20
22173;DHT22;11252;50.596;17.648;2023-08-06T02:28:30;16.10;92.20
22173;DHT22;11252;50.596;17.648;2023-08-06T02:30:57;16.00;92.20
22173;DHT22;11252;50.596;17.648;2023-08-06T02:33:24;16.10;92.20
22173;DHT22;11252;50.596;17.648;2023-08-06T02:35:51;16.10;92.20
22173;DHT22;11252;50.596;17.648;2023-08-06T02:38:18;16.00;92.20
22173;DHT22;11252;50.596;17.648;2023-08-06T02:40:45;16.00;92.20
22173;DHT22;11252;50.596;17.648;2023-08-06T02:43:12;16.00;92.20
22173;DHT22;11252;50.596;17.648;2023-08-06T02:45:40;16.00;92.20
22173;DHT22;11252;50.596;17.648;2023-08-06T02:48:07;15.90;92.20
22173;DHT22;11252;50.596;17.648;2023-08-06T02:50:38;15.90;92.20
22173;DHT22;11252;50.596;17.648;2023-08-06T02:53:09;15.90;92.20
22173;DHT22;11252;50.596;17.648;2023-08-06T02:55:36;15.80;92.20
22173;DHT22;11252;50.596;17.648;2023-08-06T02:58:04;15.80;92.20
22173;DHT22;11252;50.596;17.648;2023-08-06T03:00:31;15.80;92.20
22173;DHT22;11252;50.596;17.648;2023-08-06T03:02:58;15.80;92.20
22173;DHT22;11252;50.596;17.648;2023-08-06T03:05:25;15.80;92.20
22173;DHT22;11252;50.596;17.648;2023-08-06T03:07:52;15.80;92.20
22173;DHT22;11252;50.596;17.648;2023-08-06T03:10:19;15.70;92.20
22173;DHT22;11252;50.596;17.648;2023-08-06T03:12:46;15.70;92.20
22173;DHT22;11252;50.596;17.648;2023-08-06T03:15:13;15.70;92.20
22173;DHT22;11252;50.596;17.648;2023-08-06T03:17:40;15.70;92.20
22173;DHT22;11252;50.596;17.648;2023-08-06T03:20:07;15.60;92.20
22173;DHT22;11252;50.596;17.648;2023-08-06T03:22:34;15.60;92.20
22173;DHT22;11252;50.596;17.648;2023-08-06T03:25:02;15.60;92.20
22173;DHT22;11252;50.596;17.648;2023-08-06T03:27:29;15.60;92.20
22173;DHT22;11252;50.596;17.648;2023-08-06T03:29:56;15.50;92.20
22173;DHT22;11252;50.596;17.648;2023-08-06T03:32:23;15.50;92.20
22173;DHT22;11252;50.596;17.648;2023-08-06T03:34:50;15.50;92.20
22173;DHT22;11252;50.596;17.648;2023-08-06T03:37:17;15.50;92.20
22173;DHT22;11252;50.596;17.648;2023-08-06T03:39:44;15.40;92.20
22173;DHT22;11252;50.596;17.648;2023-08-06T03:42:10;15.40;92.20
22173;DHT22;11252;50.596;17.648;2023-08-06T03:44:37;15.30;92.20
22173;DHT22;11252;50.596;17.648;2023-08-06T03:47:06;15.40;92.20
22173;DHT22;11252;50.596;17.648;2023-08-06T03:49:33;15.30;92.20
22173;DHT22;11252;50.596;17.648;2023-08-06T03:52:00;15.30;92.20
22173;DHT22;11252;50.596;17.648;2023-08-06T03:54:27;15.20;92.20
22173;DHT22;11252;50.596;17.648;2023-08-06T03:56:53;15.20;92.20
22173;DHT22;11252;50.596;17.648;2023-08-06T03:59:20;15.20;92.20
22173;DHT22;11252;50.596;17.648;2023-08-06T04:01:47;15.20;92.20
22173;DHT22;11252;50.596;17.648;2023-08-06T04:04:14;15.20;92.20
22173;DHT22;11252;50.596;17.648;2023-08-06T04:06:41;15.20;92.20
22173;DHT22;11252;50.596;17.648;2023-08-06T04:09:08;15.20;92.20
22173;DHT22;11252;50.596;17.648;2023-08-06T04:11:35;15.20;92.20
22173;DHT22;11252;50.596;17.648;2023-08-06T04:14:02;15.10;92.20
22173;DHT22;11252;50.596;17.648;2023-08-06T04:16:29;15.10;92.20
22173;DHT22;11252;50.596;17.648;2023-08-06T04:18:56;15.10;92.20
22173;DHT22;11252;50.596;17.648;2023-08-06T04:21:23;15.10;92.20
22173;DHT22;11252;50.596;17.648;2023-08-06T04:23:50;15.10;92.20
22173;DHT22;11252;50.596;17.648;2023-08-06T04:26:17;15.10;92.20
22173;DHT22;11252;50.596;17.648;2023-08-06T04:28:44;15.10;92.20
22173;DHT22;11252;50.596;17.648;2023-08-06T04:31:11;15.10;92.20
22173;DHT22;11252;50.596;17.648;2023-08-06T04:33:38;15.10;92.20
22173;DHT22;11252;50.596;17.648;2023-08-06T04:36:06;15.10;92.20
22173;DHT22;11252;50.596;17.648;2023-08-06T04:38:33;15.10;92.20
22173;DHT22;11252;50.596;17.648;2023-08-06T04:41:02;15.00;92.20
22173;DHT22;11252;50.596;17.648;2023-08-06T04:43:30;15.00;92.20
22173;DHT22;11252;50.596;17.648;2023-08-06T04:45:56;15.00;92.20
22173;DHT22;11252;50.596;17.648;2023-08-06T04:48:23;15.00;92.20
22173;DHT22;11252;50.596;17.648;2023-08-06T04:50:51;15.00;92.20
22173;DHT22;11252;50.596;17.648;2023-08-06T04:53:18;15.00;92.20
22173;DHT22;11252;50.596;17.648;2023-08-06T04:55:47;15.00;92.20
22173;DHT22;11252;50.596;17.648;2023-08-06T04:58:14;15.00;92.20
22173;DHT22;11252;50.596;17.648;2023-08-06T05:00:42;15.00;92.20
22173;DHT22;11252;50.596;17.648;2023-08-06T05:03:09;15.00;92.20
22173;DHT22;11252;50.596;17.648;2023-08-06T05:05:35;15.00;92.20
22173;DHT22;11252;50.596;17.648;2023-08-06T05:08:02;15.00;92.20
22173;DHT22;11252;50.596;17.648;2023-08-06T05:10:29;15.00;92.20
22173;DHT22;11252;50.596;17.648;2023-08-06T05:12:56;14.90;92.20
22173;DHT22;11252;50.596;17.648;2023-08-06T05:15:23;14.90;92.20
22173;DHT22;11252;50.596;17.648;2023-08-06T05:17:52;14.90;92.20
22173;DHT22;11252;50.596;17.648;2023-08-06T05:20:20;14.90;92.20
22173;DHT22;11252;50.596;17.648;2023-08-06T05:22:47;14.90;92.20
22173;DHT22;11252;50.596;17.648;2023-08-06T05:25:14;14.90;92.20
22173;DHT22;11252;50.596;17.648;2023-08-06T05:27:41;14.90;92.20
22173;DHT22;11252;50.596;17.648;2023-08-06T05:30:09;14.90;92.20
22173;DHT22;11252;50.596;17.648;2023-08-06T05:32:36;14.90;92.20
22173;DHT22;11252;50.596;17.648;2023-08-06T05:35:03;14.90;92.20
22173;DHT22;11252;50.596;17.648;2023-08-06T05:37:30;14.90;92.20
22173;DHT22;11252;50.596;17.648;2023-08-06T05:39:57;14.90;92.20
22173;DHT22;11252;50.596;17.648;2023-08-06T05:42:24;14.90;92.20
22173;DHT22;11252;50.596;17.648;2023-08-06T05:44:51;14.80;92.20
22173;DHT22;11252;50.596;17.648;2023-08-06T05:47:18;14.80;92.20
22173;DHT22;11252;50.596;17.648;2023-08-06T05:49:46;14.90;92.20
22173;DHT22;11252;50.596;17.648;2023-08-06T05:52:14;14.80;92.20
22173;DHT22;11252;50.596;17.648;2023-08-06T05:54:41;14.80;92.20
22173;DHT22;11252;50.596;17.648;2023-08-06T05:57:08;14.80;92.20
22173;DHT22;11252;50.596;17.648;2023-08-06T05:59:35;14.80;92.20
22173;DHT22;11252;50.596;17.648;2023-08-06T06:02:03;14.80;92.20
22173;DHT22;11252;50.596;17.648;2023-08-06T06:04:30;14.80;92.20
22173;DHT22;11252;50.596;17.648;2023-08-06T06:06:57;14.80;92.20
22173;DHT22;11252;50.596;17.648;2023-08-06T06:09:24;14.70;92.20
22173;DHT22;11252;50.596;17.648;2023-08-06T06:11:51;14.80;92.20
22173;DHT22;11252;50.596;17.648;2023-08-06T06:14:18;14.80;92.20
22173;DHT22;11252;50.596;17.648;2023-08-06T06:16:45;14.80;92.20
22173;DHT22;11252;50.596;17.648;2023-08-06T06:19:12;14.80;92.20
22173;DHT22;11252;50.596;17.648;2023-08-06T06:21:40;14.80;92.20
22173;DHT22;11252;50.596;17.648;2023-08-06T06:24:07;14.80;92.20
22173;DHT22;11252;50.596;17.648;2023-08-06T06:26:35;14.80;92.20
22173;DHT22;11252;50.596;17.648;2023-08-06T06:29:01;14.80;92.20
22173;DHT22;11252;50.596;17.648;2023-08-06T06:31:30;14.80;92.20
22173;DHT22;11252;50.596;17.648;2023-08-06T06:33:58;14.80;92.20
22173;DHT22;11252;50.596;17.648;2023-08-06T06:36:25;14.80;92.20
22173;DHT22;11252;50.596;17.648;2023-08-06T06:38:52;14.80;92.20
22173;DHT22;11252;50.596;17.648;2023-08-06T06:41:19;14.80;92.20
22173;DHT22;11252;50.596;17.648;2023-08-06T06:43:45;14.80;92.20
22173;DHT22;11252;50.596;17.648;2023-08-06T06:46:12;14.80;92.20
22173;DHT22;11252;50.596;17.648;2023-08-06T06:48:39;14.80;92.20
22173;DHT22;11252;50.596;17.648;2023-08-06T06:51:06;14.80;92.20
22173;DHT22;11252;50.596;17.648;2023-08-06T06:53:33;14.80;92.20
22173;DHT22;11252;50.596;17.648;2023-08-06T06:56:04;14.80;92.20
22173;DHT22;11252;50.596;17.648;2023-08-06T06:58:32;14.80;92.20
22173;DHT22;11252;50.596;17.648;2023-08-06T07:00:59;14.80;92.20
22173;DHT22;11252;50.596;17.648;2023-08-06T07:03:26;14.70;92.20
22173;DHT22;11252;50.596;17.648;2023-08-06T07:05:57;14.80;92.20
22173;DHT22;11252;50.596;17.648;2023-08-06T07:08:25;14.80;92.20
22173;DHT22;11252;50.596;17.648;2023-08-06T07:11:00;14.80;92.20
22173;DHT22;11252;50.596;17.648;2023-08-06T07:13:28;14.80;92.20
22173;DHT22;11252;50.596;17.648;2023-08-06T07:15:55;14.80;92.20
22173;DHT22;11252;50.596;17.648;2023-08-06T07:18:23;14.80;92.20
22173;DHT22;11252;50.596;17.648;2023-08-06T07:20:51;14.80;92.20
22173;DHT22;11252;50.596;17.648;2023-08-06T07:23:22;14.80;92.20
22173;DHT22;11252;50.596;17.648;2023-08-06T07:25:50;14.80;92.20
22173;DHT22;11252;50.596;17.648;2023-08-06T07:28:17;14.80;92.20
22173;DHT22;11252;50.596;17.648;2023-08-06T07:30:45;14.80;92.20
22173;DHT22;11252;50.596;17.648;2023-08-06T07:33:12;14.80;92.20
22173;DHT22;11252;50.596;17.648;2023-08-06T07:35:39;14.80;92.20
22173;DHT22;11252;50.596;17.648;2023-08-06T07:38:06;14.80;92.20
22173;DHT22;11252;50.596;17.648;2023-08-06T07:40:36;14.80;92.20
22173;DHT22;11252;50.596;17.648;2023-08-06T07:43:03;14.80;92.20
22173;DHT22;11252;50.596;17.648;2023-08-06T07:45:34;14.80;92.20
22173;DHT22;11252;50.596;17.648;2023-08-06T07:48:02;14.90;92.20
22173;DHT22;11252;50.596;17.648;2023-08-06T07:50:29;14.90;92.20
22173;DHT22;11252;50.596;17.648;2023-08-06T07:52:57;14.90;92.20
22173;DHT22;11252;50.596;17.648;2023-08-06T07:55:24;14.90;92.20
22173;DHT22;11252;50.596;17.648;2023-08-06T07:57:52;14.90;92.20
22173;DHT22;11252;50.596;17.648;2023-08-06T08:00:19;14.90;92.20
22173;DHT22;11252;50.596;17.648;2023-08-06T08:02:46;14.90;92.20
22173;DHT22;11252;50.596;17.648;2023-08-06T08:05:13;14.90;92.20
22173;DHT22;11252;50.596;17.648;2023-08-06T08:07:40;15.00;92.20
22173;DHT22;11252;50.596;17.648;2023-08-06T08:10:07;15.00;92.20
22173;DHT22;11252;50.596;17.648;2023-08-06T08:12:34;15.00;92.20
22173;DHT22;11252;50.596;17.648;2023-08-06T08:15:01;15.00;92.20
22173;DHT22;11252;50.596;17.648;2023-08-06T08:17:28;15.00;92.20
22173;DHT22;11252;50.596;17.648;2023-08-06T08:19:55;15.00;92.20
22173;DHT22;11252;50.596;17.648;2023-08-06T08:22:22;15.00;92.20
22173;DHT22;11252;50.596;17.648;2023-08-06T08:24:49;15.00;92.20
22173;DHT22;11252;50.596;17.648;2023-08-06T08:27:16;15.00;92.20
22173;DHT22;11252;50.596;17.648;2023-08-06T08:29:43;15.00;92.20
22173;DHT22;11252;50.596;17.648;2023-08-06T08:32:09;15.00;92.20
22173;DHT22;11252;50.596;17.648;2023-08-06T08:34:37;15.00;92.20
22173;DHT22;11252;50.596;17.648;2023-08-06T08:37:04;14.90;92.20
22173;DHT22;11252;50.596;17.648;2023-08-06T08:39:32;14.90;92.20
22173;DHT22;11252;50.596;17.648;2023-08-06T08:41:59;14.90;92.20
22173;DHT22;11252;50.596;17.648;2023-08-06T08:44:28;15.00;92.20
22173;DHT22;11252;50.596;17.648;2023-08-06T08:46:56;14.90;92.20
22173;DHT22;11252;50.596;17.648;2023-08-06T08:49:24;14.90;92.20
22173;DHT22;11252;50.596;17.648;2023-08-06T08:51:53;14.90;92.20
22173;DHT22;11252;50.596;17.648;2023-08-06T08:54:23;14.80;92.20
22173;DHT22;11252;50.596;17.648;2023-08-06T08:56:50;14.90;92.20
22173;DHT22;11252;50.596;17.648;2023-08-06T08:59:17;14.90;92.20
22173;DHT22;11252;50.596;17.648;2023-08-06T09:01:46;14.90;92.20
22173;DHT22;11252;50.596;17.648;2023-08-06T09:04:17;14.80;92.20
22173;DHT22;11252;50.596;17.648;2023-08-06T09:06:49;14.80;92.20
22173;DHT22;11252;50.596;17.648;2023-08-06T09:09:26;14.80;92.20
22173;DHT22;11252;50.596;17.648;2023-08-06T09:12:00;14.80;92.20
22173;DHT22;11252;50.596;17.648;2023-08-06T09:14:27;14.80;92.20
22173;DHT22;11252;50.596;17.648;2023-08-06T09:16:54;14.80;92.20
22173;DHT22;11252;50.596;17.648;2023-08-06T09:19:21;14.80;92.20
22173;DHT22;11252;50.596;17.648;2023-08-06T09:21:51;14.90;92.20
22173;DHT22;11252;50.596;17.648;2023-08-06T09:24:18;14.80;92.20
22173;DHT22;11252;50.596;17.648;2023-08-06T09:26:48;14.80;92.20
22173;DHT22;11252;50.596;17.648;2023-08-06T09:29:16;14.80;92.20
22173;DHT22;11252;50.596;17.648;2023-08-06T09:31:47;14.90;92.20
22173;DHT22;11252;50.596;17.648;2023-08-06T09:34:22;14.90;92.20
22173;DHT22;11252;50.596;17.648;2023-08-06T09:36:53;14.90;92.20
22173;DHT22;11252;50.596;17.648;2023-08-06T09:39:27;14.90;92.20
22173;DHT22;11252;50.596;17.648;2023-08-06T09:41:59;14.90;92.20
22173;DHT22;11252;50.596;17.648;2023-08-06T09:44:27;14.90;92.20
22173;DHT22;11252;50.596;17.648;2023-08-06T09:46:56;14.90;92.20
22173;DHT22;11252;50.596;17.648;2023-08-06T09:52:00;15.00;92.20
22173;DHT22;11252;50.596;17.648;2023-08-06T09:54:27;15.00;92.20
22173;DHT22;11252;50.596;17.648;2023-08-06T09:56:56;15.00;92.20
22173;DHT22;11252;50.596;17.648;2023-08-06T09:59:23;15.00;92.20
22173;DHT22;11252;50.596;17.648;2023-08-06T10:01:51;15.00;92.20
22173;DHT22;11252;50.596;17.648;2023-08-06T10:04:20;15.00;92.20
22173;DHT22;11252;50.596;17.648;2023-08-06T10:06:52;15.10;92.20
22173;DHT22;11252;50.596;17.648;2023-08-06T10:09:20;15.20;92.20
22173;DHT22;11252;50.596;17.648;2023-08-06T10:11:51;15.20;92.20
22173;DHT22;11252;50.596;17.648;2023-08-06T10:14:29;15.20;92.20
22173;DHT22;11252;50.596;17.648;2023-08-06T10:16:57;15.20;92.20
22173;DHT22;11252;50.596;17.648;2023-08-06T10:19:27;15.20;92.20
22173;DHT22;11252;50.596;17.648;2023-08-06T10:22:14;15.20;92.20
22173;DHT22;11252;50.596;17.648;2023-08-06T10:24:55;15.20;92.20
22173;DHT22;11252;50.596;17.648;2023-08-06T10:27:34;15.30;92.20
22173;DHT22;11252;50.596;17.648;2023-08-06T10:30:30;15.30;92.20
22173;DHT22;11252;50.596;17.648;2023-08-06T10:33:00;15.20;92.20
22173;DHT22;11252;50.596;17.648;2023-08-06T10:38:19;15.20;92.20
22173;DHT22;11252;50.596;17.648;2023-08-06T10:43:32;15.20;92.20
22173;DHT22;11252;50.596;17.648;2023-08-06T10:46:02;15.20;92.20
22173;DHT22;11252;50.596;17.648;2023-08-06T10:51:01;15.30;92.20
22173;DHT22;11252;50.596;17.648;2023-08-06T10:53:29;15.30;92.20
22173;DHT22;11252;50.596;17.648;2023-08-06T10:56:01;15.30;92.20
22173;DHT22;11252;50.596;17.648;2023-08-06T10:58:34;15.30;92.20
22173;DHT22;11252;50.596;17.648;2023-08-06T11:01:01;15.30;92.20
22173;DHT22;11252;50.596;17.648;2023-08-06T11:03:29;15.30;92.20
22173;DHT22;11252;50.596;17.648;2023-08-06T11:05:56;15.30;92.20
22173;DHT22;11252;50.596;17.648;2023-08-06T11:08:26;15.30;92.20
22173;DHT22;11252;50.596;17.648;2023-08-06T11:10:54;15.20;92.20
22173;DHT22;11252;50.596;17.648;2023-08-06T11:13:29;15.20;92.20
22173;DHT22;11252;50.596;17.648;2023-08-06T11:15:58;15.20;92.20
22173;DHT22;11252;50.596;17.648;2023-08-06T11:18:25;15.20;92.20
22173;DHT22;11252;50.596;17.648;2023-08-06T11:20:52;15.20;92.20
22173;DHT22;11252;50.596;17.648;2023-08-06T11:23:19;15.30;92.20
22173;DHT22;11252;50.596;17.648;2023-08-06T11:25:46;15.20;92.20
22173;DHT22;11252;50.596;17.648;2023-08-06T11:28:13;15.20;92.20
22173;DHT22;11252;50.596;17.648;2023-08-06T11:30:40;15.20;92.20
22173;DHT22;11252;50.596;17.648;2023-08-06T11:33:07;15.20;92.20
22173;DHT22;11252;50.596;17.648;2023-08-06T11:35:37;15.30;92.20
22173;DHT22;11252;50.596;17.648;2023-08-06T11:38:04;15.30;92.20
22173;DHT22;11252;50.596;17.648;2023-08-06T11:40:35;15.30;92.20
22173;DHT22;11252;50.596;17.648;2023-08-06T11:43:02;15.40;92.20
22173;DHT22;11252;50.596;17.648;2023-08-06T11:45:30;15.50;92.20
22173;DHT22;11252;50.596;17.648;2023-08-06T11:47:57;15.50;92.20
22173;DHT22;11252;50.596;17.648;2023-08-06T11:50:26;15.50;92.20
22173;DHT22;11252;50.596;17.648;2023-08-06T11:52:58;15.60;92.20
22173;DHT22;11252;50.596;17.648;2023-08-06T11:55:28;15.60;92.20
22173;DHT22;11252;50.596;17.648;2023-08-06T11:57:56;15.50;92.20
22173;DHT22;11252;50.596;17.648;2023-08-06T12:00:24;15.50;92.20
22173;DHT22;11252;50.596;17.648;2023-08-06T12:02:52;15.50;92.20
22173;DHT22;11252;50.596;17.648;2023-08-06T12:05:20;15.50;92.20
22173;DHT22;11252;50.596;17.648;2023-08-06T12:07:49;15.50;92.20
22173;DHT22;11252;50.596;17.648;2023-08-06T12:10:16;15.50;92.20
22173;DHT22;11252;50.596;17.648;2023-08-06T12:12:44;15.50;92.20
22173;DHT22;11252;50.596;17.648;2023-08-06T12:15:11;15.50;92.20
22173;DHT22;11252;50.596;17.648;2023-08-06T12:17:38;15.50;92.20
22173;DHT22;11252;50.596;17.648;2023-08-06T12:20:07;15.50;92.20
22173;DHT22;11252;50.596;17.648;2023-08-06T12:22:34;15.50;92.20
22173;DHT22;11252;50.596;17.648;2023-08-06T12:25:03;15.50;92.20
22173;DHT22;11252;50.596;17.648;2023-08-06T12:27:30;15.50;92.20
22173;DHT22;11252;50.596;17.648;2023-08-06T12:29:57;15.50;92.20
22173;DHT22;11252;50.596;17.648;2023-08-06T12:32:24;15.50;92.20
22173;DHT22;11252;50.596;17.648;2023-08-06T12:34:51;15.50;92.20
22173;DHT22;11252;50.596;17.648;2023-08-06T12:37:19;15.50;92.20
22173;DHT22;11252;50.596;17.648;2023-08-06T12:39:46;15.50;92.20
22173;DHT22;11252;50.596;17.648;2023-08-06T12:42:13;15.50;92.20
22173;DHT22;11252;50.596;17.648;2023-08-06T12:44:40;15.50;92.20
22173;DHT22;11252;50.596;17.648;2023-08-06T12:47:07;15.60;92.20
22173;DHT22;11252;50.596;17.648;2023-08-06T12:49:34;15.60;92.20
22173;DHT22;11252;50.596;17.648;2023-08-06T12:52:02;15.60;92.20
22173;DHT22;11252;50.596;17.648;2023-08-06T12:54:31;15.60;92.20
22173;DHT22;11252;50.596;17.648;2023-08-06T12:57:04;15.60;92.20
22173;DHT22;11252;50.596;17.648;2023-08-06T12:59:32;15.60;92.20
22173;DHT22;11252;50.596;17.648;2023-08-06T13:02:04;15.60;92.20
22173;DHT22;11252;50.596;17.648;2023-08-06T13:04:31;15.70;92.20
22173;DHT22;11252;50.596;17.648;2023-08-06T13:06:58;15.60;92.20
22173;DHT22;11252;50.596;17.648;2023-08-06T13:09:25;15.70;92.20
22173;DHT22;11252;50.596;17.648;2023-08-06T13:11:57;15.70;92.20
22173;DHT22;11252;50.596;17.648;2023-08-06T13:14:26;15.70;92.20
22173;DHT22;11252;50.596;17.648;2023-08-06T13:16:55;15.70;92.20
22173;DHT22;11252;50.596;17.648;2023-08-06T13:19:22;15.70;92.20
22173;DHT22;11252;50.596;17.648;2023-08-06T13:24:16;15.70;92.20
22173;DHT22;11252;50.596;17.648;2023-08-06T13:26:43;15.70;92.20
22173;DHT22;11252;50.596;17.648;2023-08-06T13:29:10;15.80;92.20
22173;DHT22;11252;50.596;17.648;2023-08-06T13:31:37;15.80;92.20
22173;DHT22;11252;50.596;17.648;2023-08-06T13:34:04;15.80;92.20
22173;DHT22;11252;50.596;17.648;2023-08-06T13:36:31;15.80;92.20
22173;DHT22;11252;50.596;17.648;2023-08-06T13:38:58;15.80;92.20
22173;DHT22;11252;50.596;17.648;2023-08-06T13:41:25;15.70;92.20
22173;DHT22;11252;50.596;17.648;2023-08-06T13:43:52;15.80;92.20
22173;DHT22;11252;50.596;17.648;2023-08-06T13:46:19;15.90;92.20
22173;DHT22;11252;50.596;17.648;2023-08-06T13:48:48;15.90;92.20
22173;DHT22;11252;50.596;17.648;2023-08-06T13:51:18;15.90;92.20
22173;DHT22;11252;50.596;17.648;2023-08-06T13:53:45;15.90;92.20
22173;DHT22;11252;50.596;17.648;2023-08-06T13:56:12;15.90;92.20
22173;DHT22;11252;50.596;17.648;2023-08-06T13:58:42;15.80;92.20
22173;DHT22;11252;50.596;17.648;2023-08-06T14:01:10;15.80;92.20
22173;DHT22;11252;50.596;17.648;2023-08-06T14:03:37;15.80;92.20
22173;DHT22;11252;50.596;17.648;2023-08-06T14:06:05;15.80;92.20
22173;DHT22;11252;50.596;17.648;2023-08-06T14:08:32;15.90;92.20
22173;DHT22;11252;50.596;17.648;2023-08-06T14:10:58;15.90;92.20
22173;DHT22;11252;50.596;17.648;2023-08-06T14:13:26;15.90;92.20
22173;DHT22;11252;50.596;17.648;2023-08-06T14:15:52;15.90;92.20
22173;DHT22;11252;50.596;17.648;2023-08-06T14:18:20;15.90;92.20
22173;DHT22;11252;50.596;17.648;2023-08-06T14:20:46;16.00;92.20
22173;DHT22;11252;50.596;17.648;2023-08-06T14:23:13;16.00;92.20
22173;DHT22;11252;50.596;17.648;2023-08-06T14:25:40;16.00;92.20
22173;DHT22;11252;50.596;17.648;2023-08-06T14:28:07;16.10;92.20
22173;DHT22;11252;50.596;17.648;2023-08-06T14:30:35;16.10;92.20
22173;DHT22;11252;50.596;17.648;2023-08-06T14:33:02;16.10;92.20
22173;DHT22;11252;50.596;17.648;2023-08-06T14:35:49;16.10;92.20
22173;DHT22;11252;50.596;17.648;2023-08-06T14:38:17;16.00;92.20
22173;DHT22;11252;50.596;17.648;2023-08-06T14:40:44;16.00;92.20
22173;DHT22;11252;50.596;17.648;2023-08-06T14:43:11;15.90;92.20
22173;DHT22;11252;50.596;17.648;2023-08-06T14:45:41;15.90;92.20
22173;DHT22;11252;50.596;17.648;2023-08-06T14:48:08;15.90;92.20
22173;DHT22;11252;50.596;17.648;2023-08-06T14:50:35;15.80;92.20
22173;DHT22;11252;50.596;17.648;2023-08-06T14:53:02;15.80;92.20
22173;DHT22;11252;50.596;17.648;2023-08-06T14:55:31;15.80;92.20
22173;DHT22;11252;50.596;17.648;2023-08-06T14:58:01;15.70;92.20
22173;DHT22;11252;50.596;17.648;2023-08-06T15:00:28;15.70;92.20
22173;DHT22;11252;50.596;17.648;2023-08-06T15:02:55;15.70;92.20
22173;DHT22;11252;50.596;17.648;2023-08-06T15:05:22;15.60;92.20
22173;DHT22;11252;50.596;17.648;2023-08-06T15:07:49;15.60;92.20
22173;DHT22;11252;50.596;17.648;2023-08-06T15:10:16;15.60;92.20
22173;DHT22;11252;50.596;17.648;2023-08-06T15:12:46;15.50;92.20
22173;DHT22;11252;50.596;17.648;2023-08-06T15:15:14;15.50;92.20
22173;DHT22;11252;50.596;17.648;2023-08-06T15:17:42;15.50;92.20
22173;DHT22;11252;50.596;17.648;2023-08-06T15:20:09;15.50;92.20
22173;DHT22;11252;50.596;17.648;2023-08-06T15:22:36;15.50;92.20
22173;DHT22;11252;50.596;17.648;2023-08-06T15:25:03;15.50;92.20
22173;DHT22;11252;50.596;17.648;2023-08-06T15:27:30;15.50;92.20
22173;DHT22;11252;50.596;17.648;2023-08-06T15:29:59;15.50;92.20
22173;DHT22;11252;50.596;17.648;2023-08-06T15:32:26;15.50;92.20
22173;DHT22;11252;50.596;17.648;2023-08-06T15:34:54;15.50;92.20
22173;DHT22;11252;50.596;17.648;2023-08-06T15:37:22;15.50;92.20
22173;DHT22;11252;50.596;17.648;2023-08-06T15:39:49;15.50;92.20